sensor_id;sensor_type;location;lat;lon;timestamp;temperature;humidity
15636;DHT22;7917;50.818;6.972;2023-05-19T00:00:18;8.60;99.90
15636;DHT22;7917;50.818;6.972;2023-05-19T00:02:46;8.60;1.00
15636;DHT22;7917;50.818;6.972;2023-05-19T00:05:14;8.50;1.00
15636;DHT22;7917;50.818;6.972;2023-05-19T00:07:43;8.50;1.00
15636;DHT22;7917;50.818;6.972;2023-05-19T00:10:12;8.40;1.00
15636;DHT22;7917;50.818;6.972;2023-05-19T00:12:41;8.40;1.00
15636;DHT22;7917;50.818;6.972;2023-05-19T00:15:09;8.40;1.00
15636;DHT22;7917;50.818;6.972;2023-05-19T00:17:37;8.40;99.90
15636;DHT22;7917;50.818;6.972;2023-05-19T00:20:08;8.30;99.90
15636;DHT22;7917;50.818;6.972;2023-05-19T00:22:36;8.30;1.00
15636;DHT22;7917;50.818;6.972;2023-05-19T00:25:04;8.30;1.00
15636;DHT22;7917;50.818;6.972;2023-05-19T00:27:31;8.30;99.90
15636;DHT22;7917;50.818;6.972;2023-05-19T00:29:58;8.20;99.90
15636;DHT22;7917;50.818;6.972;2023-05-19T00:32:25;8.20;1.00
15636;DHT22;7917;50.818;6.972;2023-05-19T00:34:53;8.20;99.90
15636;DHT22;7917;50.818;6.972;2023-05-19T00:37:20;8.10;99.90
15636;DHT22;7917;50.818;6.972;2023-05-19T00:39:48;8.00;1.00
15636;DHT22;7917;50.818;6.972;2023-05-19T00:42:16;8.00;99.90
15636;DHT22;7917;50.818;6.972;2023-05-19T00:44:43;8.00;1.00
15636;DHT22;7917;50.818;6.972;2023-05-19T00:47:10;7.90;1.00
15636;DHT22;7917;50.818;6.972;2023-05-19T00:49:36;8.00;1.00
15636;DHT22;7917;50.818;6.972;2023-05-19T00:52:05;7.90;1.00
15636;DHT22;7917;50.818;6.972;2023-05-19T00:54:33;7.90;1.00
15636;DHT22;7917;50.818;6.972;2023-05-19T00:57:00;7.90;1.00
15636;DHT22;7917;50.818;6.972;2023-05-19T00:59:27;7.80;24.70
15636;DHT22;7917;50.818;6.972;2023-05-19T01:01:54;7.70;39.90
15636;DHT22;7917;50.818;6.972;2023-05-19T01:04:21;7.70;95.20
15636;DHT22;7917;50.818;6.972;2023-05-19T01:07:25;7.60;99.90
15636;DHT22;7917;50.818;6.972;2023-05-19T01:09:52;7.60;99.90
15636;DHT22;7917;50.818;6.972;2023-05-19T01:12:19;7.40;99.90
15636;DHT22;7917;50.818;6.972;2023-05-19T01:14:46;7.40;99.90
15636;DHT22;7917;50.818;6.972;2023-05-19T01:17:20;7.30;99.90
15636;DHT22;7917;50.818;6.972;2023-05-19T01:19:57;7.30;99.90
15636;DHT22;7917;50.818;6.972;2023-05-19T01:22:52;7.30;99.90
15636;DHT22;7917;50.818;6.972;2023-05-19T01:28:57;7.20;99.90
15636;DHT22;7917;50.818;6.972;2023-05-19T01:31:29;7.20;99.90
15636;DHT22;7917;50.818;6.972;2023-05-19T01:33:57;7.20;99.90
15636;DHT22;7917;50.818;6.972;2023-05-19T01:36:25;7.10;99.90
15636;DHT22;7917;50.818;6.972;2023-05-19T01:39:00;7.10;99.90
15636;DHT22;7917;50.818;6.972;2023-05-19T01:41:28;7.10;99.90
15636;DHT22;7917;50.818;6.972;2023-05-19T01:43:57;7.10;99.90
15636;DHT22;7917;50.818;6.972;2023-05-19T01:46:24;7.00;99.90
15636;DHT22;7917;50.818;6.972;2023-05-19T01:48:55;7.00;99.90
15636;DHT22;7917;50.818;6.972;2023-05-19T01:51:22;6.90;99.90
15636;DHT22;7917;50.818;6.972;2023-05-19T01:53:49;6.90;99.90
15636;DHT22;7917;50.818;6.972;2023-05-19T01:56:19;6.90;99.90
15636;DHT22;7917;50.818;6.972;2023-05-19T01:58:51;7.00;99.90
15636;DHT22;7917;50.818;6.972;2023-05-19T02:01:26;6.90;99.90
15636;DHT22;7917;50.818;6.972;2023-05-19T02:04:12;6.90;99.90
15636;DHT22;7917;50.818;6.972;2023-05-19T02:06:41;6.90;99.90
15636;DHT22;7917;50.818;6.972;2023-05-19T02:09:14;6.80;99.90
15636;DHT22;7917;50.818;6.972;2023-05-19T02:11:54;6.80;99.90
15636;DHT22;7917;50.818;6.972;2023-05-19T02:14:29;6.80;99.90
15636;DHT22;7917;50.818;6.972;2023-05-19T02:17:00;6.80;99.90
15636;DHT22;7917;50.818;6.972;2023-05-19T02:19:34;6.70;99.90
15636;DHT22;7917;50.818;6.972;2023-05-19T02:22:01;6.70;99.90
15636;DHT22;7917;50.818;6.972;2023-05-19T02:24:27;6.70;99.90
15636;DHT22;7917;50.818;6.972;2023-05-19T02:26:54;6.70;99.90
15636;DHT22;7917;50.818;6.972;2023-05-19T02:29:22;6.60;99.90
15636;DHT22;7917;50.818;6.972;2023-05-19T02:31:49;6.60;99.90
15636;DHT22;7917;50.818;6.972;2023-05-19T02:34:16;6.60;99.90
15636;DHT22;7917;50.818;6.972;2023-05-19T02:36:44;6.60;99.90
15636;DHT22;7917;50.818;6.972;2023-05-19T02:39:14;6.50;99.90
15636;DHT22;7917;50.818;6.972;2023-05-19T02:41:41;6.50;99.90
15636;DHT22;7917;50.818;6.972;2023-05-19T02:44:08;6.50;99.90
15636;DHT22;7917;50.818;6.972;2023-05-19T02:46:35;6.50;99.90
15636;DHT22;7917;50.818;6.972;2023-05-19T02:49:02;6.40;99.90
15636;DHT22;7917;50.818;6.972;2023-05-19T02:51:29;6.50;99.90
15636;DHT22;7917;50.818;6.972;2023-05-19T02:53:57;6.50;99.90
15636;DHT22;7917;50.818;6.972;2023-05-19T02:56:23;6.50;99.90
15636;DHT22;7917;50.818;6.972;2023-05-19T02:58:51;6.50;99.90
15636;DHT22;7917;50.818;6.972;2023-05-19T03:01:18;6.40;99.90
15636;DHT22;7917;50.818;6.972;2023-05-19T03:03:46;6.40;99.90
15636;DHT22;7917;50.818;6.972;2023-05-19T03:06:16;6.30;99.90
15636;DHT22;7917;50.818;6.972;2023-05-19T03:08:43;6.30;99.90
15636;DHT22;7917;50.818;6.972;2023-05-19T03:11:10;6.30;99.90
15636;DHT22;7917;50.818;6.972;2023-05-19T03:13:37;6.30;99.90
15636;DHT22;7917;50.818;6.972;2023-05-19T03:16:04;6.30;99.90
15636;DHT22;7917;50.818;6.972;2023-05-19T03:18:33;6.30;99.90
15636;DHT22;7917;50.818;6.972;2023-05-19T03:21:00;6.20;99.90
15636;DHT22;7917;50.818;6.972;2023-05-19T03:23:27;6.10;99.90
15636;DHT22;7917;50.818;6.972;2023-05-19T03:25:54;6.10;99.90
15636;DHT22;7917;50.818;6.972;2023-05-19T03:28:22;6.10;99.90
15636;DHT22;7917;50.818;6.972;2023-05-19T03:30:49;6.00;99.90
15636;DHT22;7917;50.818;6.972;2023-05-19T03:33:16;6.00;99.90
15636;DHT22;7917;50.818;6.972;2023-05-19T03:35:43;6.00;99.90
15636;DHT22;7917;50.818;6.972;2023-05-19T03:38:10;6.10;99.90
15636;DHT22;7917;50.818;6.972;2023-05-19T03:40:37;6.10;99.90
15636;DHT22;7917;50.818;6.972;2023-05-19T03:43:03;6.10;99.90
15636;DHT22;7917;50.818;6.972;2023-05-19T03:45:31;6.10;99.90
15636;DHT22;7917;50.818;6.972;2023-05-19T03:47:58;6.10;99.90
15636;DHT22;7917;50.818;6.972;2023-05-19T03:50:25;6.00;99.90
15636;DHT22;7917;50.818;6.972;2023-05-19T03:52:54;6.00;99.90
15636;DHT22;7917;50.818;6.972;2023-05-19T03:55:21;6.00;99.90
15636;DHT22;7917;50.818;6.972;2023-05-19T03:57:48;6.00;99.90
15636;DHT22;7917;50.818;6.972;2023-05-19T04:00:16;6.00;99.90
15636;DHT22;7917;50.818;6.972;2023-05-19T04:02:44;6.00;99.90
15636;DHT22;7917;50.818;6.972;2023-05-19T04:05:11;6.00;99.90
15636;DHT22;7917;50.818;6.972;2023-05-19T04:07:37;6.00;99.90
15636;DHT22;7917;50.818;6.972;2023-05-19T04:10:05;6.00;99.90
15636;DHT22;7917;50.818;6.972;2023-05-19T04:12:32;6.10;99.90
15636;DHT22;7917;50.818;6.972;2023-05-19T04:14:59;6.10;99.90
15636;DHT22;7917;50.818;6.972;2023-05-19T04:17:26;6.10;99.90
15636;DHT22;7917;50.818;6.972;2023-05-19T04:19:54;6.10;99.90
15636;DHT22;7917;50.818;6.972;2023-05-19T04:22:22;6.30;99.90
15636;DHT22;7917;50.818;6.972;2023-05-19T04:24:49;6.30;99.90
15636;DHT22;7917;50.818;6.972;2023-05-19T04:27:17;6.30;99.90
15636;DHT22;7917;50.818;6.972;2023-05-19T04:29:44;6.40;99.90
15636;DHT22;7917;50.818;6.972;2023-05-19T04:32:13;6.40;99.90
15636;DHT22;7917;50.818;6.972;2023-05-19T04:34:45;6.40;99.90
15636;DHT22;7917;50.818;6.972;2023-05-19T04:37:13;6.50;99.90
15636;DHT22;7917;50.818;6.972;2023-05-19T04:39:41;6.50;99.90
15636;DHT22;7917;50.818;6.972;2023-05-19T04:42:10;6.50;99.90
15636;DHT22;7917;50.818;6.972;2023-05-19T04:44:37;6.70;99.90
15636;DHT22;7917;50.818;6.972;2023-05-19T04:47:06;6.70;99.90
15636;DHT22;7917;50.818;6.972;2023-05-19T04:49:33;6.80;99.90
15636;DHT22;7917;50.818;6.972;2023-05-19T04:52:05;6.90;99.90
15636;DHT22;7917;50.818;6.972;2023-05-19T04:54:37;6.90;99.90
15636;DHT22;7917;50.818;6.972;2023-05-19T04:57:04;7.00;99.90
15636;DHT22;7917;50.818;6.972;2023-05-19T04:59:31;7.10;99.90
15636;DHT22;7917;50.818;6.972;2023-05-19T05:01:58;7.20;99.90
15636;DHT22;7917;50.818;6.972;2023-05-19T05:04:25;7.30;99.90
15636;DHT22;7917;50.818;6.972;2023-05-19T05:06:52;7.40;99.90
15636;DHT22;7917;50.818;6.972;2023-05-19T05:09:19;7.60;99.90
15636;DHT22;7917;50.818;6.972;2023-05-19T05:11:47;7.70;99.90
15636;DHT22;7917;50.818;6.972;2023-05-19T05:14:16;7.90;99.90
15636;DHT22;7917;50.818;6.972;2023-05-19T05:16:43;8.10;99.90
15636;DHT22;7917;50.818;6.972;2023-05-19T05:19:11;8.30;99.90
15636;DHT22;7917;50.818;6.972;2023-05-19T05:21:41;8.50;99.90
15636;DHT22;7917;50.818;6.972;2023-05-19T05:24:09;8.70;99.90
15636;DHT22;7917;50.818;6.972;2023-05-19T05:26:37;8.90;99.90
15636;DHT22;7917;50.818;6.972;2023-05-19T05:29:05;9.00;99.90
15636;DHT22;7917;50.818;6.972;2023-05-19T05:31:32;9.10;99.90
15636;DHT22;7917;50.818;6.972;2023-05-19T05:33:58;9.30;99.90
15636;DHT22;7917;50.818;6.972;2023-05-19T05:36:26;9.40;99.90
15636;DHT22;7917;50.818;6.972;2023-05-19T05:38:53;9.60;99.90
15636;DHT22;7917;50.818;6.972;2023-05-19T05:41:19;9.80;99.90
15636;DHT22;7917;50.818;6.972;2023-05-19T05:43:48;10.00;99.90
15636;DHT22;7917;50.818;6.972;2023-05-19T05:46:16;10.20;99.90
15636;DHT22;7917;50.818;6.972;2023-05-19T05:48:43;10.30;99.90
15636;DHT22;7917;50.818;6.972;2023-05-19T05:51:10;10.50;97.70
15636;DHT22;7917;50.818;6.972;2023-05-19T05:53:40;10.60;1.00
15636;DHT22;7917;50.818;6.972;2023-05-19T05:56:09;10.80;99.90
15636;DHT22;7917;50.818;6.972;2023-05-19T05:58:37;11.00;1.00
15636;DHT22;7917;50.818;6.972;2023-05-19T06:01:05;11.20;1.00
15636;DHT22;7917;50.818;6.972;2023-05-19T06:03:38;11.40;99.90
15636;DHT22;7917;50.818;6.972;2023-05-19T06:06:07;11.50;94.10
15636;DHT22;7917;50.818;6.972;2023-05-19T06:08:33;11.60;1.00
15636;DHT22;7917;50.818;6.972;2023-05-19T06:11:00;11.70;1.00
15636;DHT22;7917;50.818;6.972;2023-05-19T06:13:34;11.80;1.00
15636;DHT22;7917;50.818;6.972;2023-05-19T06:16:01;11.90;1.00
15636;DHT22;7917;50.818;6.972;2023-05-19T06:18:28;12.00;99.90
15636;DHT22;7917;50.818;6.972;2023-05-19T06:20:56;12.10;1.00
15636;DHT22;7917;50.818;6.972;2023-05-19T06:23:23;12.30;1.00
15636;DHT22;7917;50.818;6.972;2023-05-19T06:25:51;12.40;1.00
15636;DHT22;7917;50.818;6.972;2023-05-19T06:28:19;12.50;1.00
15636;DHT22;7917;50.818;6.972;2023-05-19T06:30:45;12.60;1.00
15636;DHT22;7917;50.818;6.972;2023-05-19T06:33:12;12.80;1.00
15636;DHT22;7917;50.818;6.972;2023-05-19T06:35:40;12.90;1.00
15636;DHT22;7917;50.818;6.972;2023-05-19T06:38:08;13.00;99.90
15636;DHT22;7917;50.818;6.972;2023-05-19T06:40:35;13.10;99.90
15636;DHT22;7917;50.818;6.972;2023-05-19T06:43:05;13.10;99.90
15636;DHT22;7917;50.818;6.972;2023-05-19T06:45:32;13.10;99.90
15636;DHT22;7917;50.818;6.972;2023-05-19T06:47:59;13.20;99.90
15636;DHT22;7917;50.818;6.972;2023-05-19T06:50:26;13.40;99.90
15636;DHT22;7917;50.818;6.972;2023-05-19T06:52:53;13.60;99.90
15636;DHT22;7917;50.818;6.972;2023-05-19T06:55:23;13.70;99.90
15636;DHT22;7917;50.818;6.972;2023-05-19T06:57:50;13.90;99.90
15636;DHT22;7917;50.818;6.972;2023-05-19T07:00:18;14.00;99.90
15636;DHT22;7917;50.818;6.972;2023-05-19T07:02:50;14.00;99.90
15636;DHT22;7917;50.818;6.972;2023-05-19T07:05:18;14.10;99.90
15636;DHT22;7917;50.818;6.972;2023-05-19T07:07:45;14.10;99.90
15636;DHT22;7917;50.818;6.972;2023-05-19T07:10:12;14.20;99.90
15636;DHT22;7917;50.818;6.972;2023-05-19T07:12:39;14.40;99.90
15636;DHT22;7917;50.818;6.972;2023-05-19T07:15:07;14.50;99.90
15636;DHT22;7917;50.818;6.972;2023-05-19T07:17:34;14.50;99.90
15636;DHT22;7917;50.818;6.972;2023-05-19T07:20:01;14.40;99.90
15636;DHT22;7917;50.818;6.972;2023-05-19T07:22:32;14.70;99.90
15636;DHT22;7917;50.818;6.972;2023-05-19T07:25:00;14.80;99.90
15636;DHT22;7917;50.818;6.972;2023-05-19T07:27:27;14.90;99.90
15636;DHT22;7917;50.818;6.972;2023-05-19T07:29:57;14.90;99.90
15636;DHT22;7917;50.818;6.972;2023-05-19T07:32:24;15.00;99.90
15636;DHT22;7917;50.818;6.972;2023-05-19T07:34:51;15.20;99.90
15636;DHT22;7917;50.818;6.972;2023-05-19T07:37:18;15.40;99.90
15636;DHT22;7917;50.818;6.972;2023-05-19T07:39:45;15.40;99.90
15636;DHT22;7917;50.818;6.972;2023-05-19T07:42:12;15.50;99.90
15636;DHT22;7917;50.818;6.972;2023-05-19T07:44:39;15.60;99.90
15636;DHT22;7917;50.818;6.972;2023-05-19T07:47:07;15.80;99.90
15636;DHT22;7917;50.818;6.972;2023-05-19T07:49:33;15.80;99.90
15636;DHT22;7917;50.818;6.972;2023-05-19T07:52:00;15.90;99.90
15636;DHT22;7917;50.818;6.972;2023-05-19T07:54:27;16.00;99.90
15636;DHT22;7917;50.818;6.972;2023-05-19T07:56:54;16.00;99.90
15636;DHT22;7917;50.818;6.972;2023-05-19T07:59:21;16.30;99.90
15636;DHT22;7917;50.818;6.972;2023-05-19T08:01:49;16.30;99.90
15636;DHT22;7917;50.818;6.972;2023-05-19T08:04:16;16.30;99.90
15636;DHT22;7917;50.818;6.972;2023-05-19T08:06:44;16.40;99.90
15636;DHT22;7917;50.818;6.972;2023-05-19T08:09:11;16.60;99.90
15636;DHT22;7917;50.818;6.972;2023-05-19T08:11:37;16.70;99.90
15636;DHT22;7917;50.818;6.972;2023-05-19T08:14:05;16.90;99.90
15636;DHT22;7917;50.818;6.972;2023-05-19T08:16:32;16.70;99.90
15636;DHT22;7917;50.818;6.972;2023-05-19T08:18:59;17.00;99.90
15636;DHT22;7917;50.818;6.972;2023-05-19T08:21:30;17.10;99.90
15636;DHT22;7917;50.818;6.972;2023-05-19T08:24:00;17.10;99.90
15636;DHT22;7917;50.818;6.972;2023-05-19T08:26:27;17.10;99.90
15636;DHT22;7917;50.818;6.972;2023-05-19T08:28:54;17.10;99.90
15636;DHT22;7917;50.818;6.972;2023-05-19T08:31:21;17.20;99.90
15636;DHT22;7917;50.818;6.972;2023-05-19T08:33:48;17.20;99.90
15636;DHT22;7917;50.818;6.972;2023-05-19T08:36:15;17.10;99.90
15636;DHT22;7917;50.818;6.972;2023-05-19T08:38:43;17.10;99.90
15636;DHT22;7917;50.818;6.972;2023-05-19T08:41:10;17.50;99.90
15636;DHT22;7917;50.818;6.972;2023-05-19T08:43:38;17.40;99.90
15636;DHT22;7917;50.818;6.972;2023-05-19T08:46:06;17.60;99.90
15636;DHT22;7917;50.818;6.972;2023-05-19T08:48:34;17.70;99.90
15636;DHT22;7917;50.818;6.972;2023-05-19T08:51:12;17.80;99.90
15636;DHT22;7917;50.818;6.972;2023-05-19T08:53:44;17.80;99.90
15636;DHT22;7917;50.818;6.972;2023-05-19T08:56:15;18.00;99.90
15636;DHT22;7917;50.818;6.972;2023-05-19T08:58:44;18.10;99.90
15636;DHT22;7917;50.818;6.972;2023-05-19T09:01:13;18.20;99.90
15636;DHT22;7917;50.818;6.972;2023-05-19T09:03:42;18.10;99.90
15636;DHT22;7917;50.818;6.972;2023-05-19T09:06:11;18.20;99.90
15636;DHT22;7917;50.818;6.972;2023-05-19T09:08:38;18.20;99.90
15636;DHT22;7917;50.818;6.972;2023-05-19T09:11:06;18.40;99.90
15636;DHT22;7917;50.818;6.972;2023-05-19T09:13:34;18.70;99.90
15636;DHT22;7917;50.818;6.972;2023-05-19T09:16:01;18.60;99.90
15636;DHT22;7917;50.818;6.972;2023-05-19T09:18:29;18.60;99.90
15636;DHT22;7917;50.818;6.972;2023-05-19T09:20:57;18.90;99.90
15636;DHT22;7917;50.818;6.972;2023-05-19T09:23:27;18.40;99.90
15636;DHT22;7917;50.818;6.972;2023-05-19T09:25:54;18.20;99.90
15636;DHT22;7917;50.818;6.972;2023-05-19T09:28:24;18.30;99.90
15636;DHT22;7917;50.818;6.972;2023-05-19T09:31:01;18.50;99.90
15636;DHT22;7917;50.818;6.972;2023-05-19T09:33:29;18.50;99.90
15636;DHT22;7917;50.818;6.972;2023-05-19T09:35:58;18.70;99.90
15636;DHT22;7917;50.818;6.972;2023-05-19T09:38:25;18.50;99.90
15636;DHT22;7917;50.818;6.972;2023-05-19T09:40:52;18.70;99.90
15636;DHT22;7917;50.818;6.972;2023-05-19T09:43:20;18.60;99.90
15636;DHT22;7917;50.818;6.972;2023-05-19T09:45:49;18.70;99.90
15636;DHT22;7917;50.818;6.972;2023-05-19T09:48:20;18.90;99.90
15636;DHT22;7917;50.818;6.972;2023-05-19T09:50:48;19.00;99.90
15636;DHT22;7917;50.818;6.972;2023-05-19T09:53:17;19.20;99.90
15636;DHT22;7917;50.818;6.972;2023-05-19T09:55:45;19.20;99.90
15636;DHT22;7917;50.818;6.972;2023-05-19T09:58:15;19.60;99.90
15636;DHT22;7917;50.818;6.972;2023-05-19T10:00:44;19.60;99.90
15636;DHT22;7917;50.818;6.972;2023-05-19T10:03:12;19.20;99.90
15636;DHT22;7917;50.818;6.972;2023-05-19T10:05:40;18.90;99.90
15636;DHT22;7917;50.818;6.972;2023-05-19T10:08:08;19.10;99.90
15636;DHT22;7917;50.818;6.972;2023-05-19T10:10:36;19.20;99.90
15636;DHT22;7917;50.818;6.972;2023-05-19T10:13:04;19.10;99.90
15636;DHT22;7917;50.818;6.972;2023-05-19T10:15:31;19.00;99.90
15636;DHT22;7917;50.818;6.972;2023-05-19T10:17:58;19.20;99.90
15636;DHT22;7917;50.818;6.972;2023-05-19T10:20:27;19.40;99.90
15636;DHT22;7917;50.818;6.972;2023-05-19T10:22:54;19.50;99.90
15636;DHT22;7917;50.818;6.972;2023-05-19T10:25:22;20.10;99.90
15636;DHT22;7917;50.818;6.972;2023-05-19T10:27:53;20.30;99.90
15636;DHT22;7917;50.818;6.972;2023-05-19T10:30:27;20.50;99.90
15636;DHT22;7917;50.818;6.972;2023-05-19T10:32:55;20.70;99.90
15636;DHT22;7917;50.818;6.972;2023-05-19T10:35:46;20.80;99.90
15636;DHT22;7917;50.818;6.972;2023-05-19T10:38:30;20.60;99.90
15636;DHT22;7917;50.818;6.972;2023-05-19T10:41:03;20.50;99.90
15636;DHT22;7917;50.818;6.972;2023-05-19T10:43:41;20.50;99.90
15636;DHT22;7917;50.818;6.972;2023-05-19T10:46:11;20.60;99.90
15636;DHT22;7917;50.818;6.972;2023-05-19T10:48:43;20.70;99.90
15636;DHT22;7917;50.818;6.972;2023-05-19T10:51:13;20.60;99.90
15636;DHT22;7917;50.818;6.972;2023-05-19T10:53:41;20.80;99.90
15636;DHT22;7917;50.818;6.972;2023-05-19T10:56:11;21.00;99.90
15636;DHT22;7917;50.818;6.972;2023-05-19T10:58:55;21.40;99.90
15636;DHT22;7917;50.818;6.972;2023-05-19T11:01:22;21.40;99.90
15636;DHT22;7917;50.818;6.972;2023-05-19T11:03:55;21.30;99.90
15636;DHT22;7917;50.818;6.972;2023-05-19T11:06:27;21.00;99.90
15636;DHT22;7917;50.818;6.972;2023-05-19T11:08:57;20.80;99.90
15636;DHT22;7917;50.818;6.972;2023-05-19T11:11:25;20.40;99.90
15636;DHT22;7917;50.818;6.972;2023-05-19T11:13:53;20.10;99.90
15636;DHT22;7917;50.818;6.972;2023-05-19T11:16:31;20.10;99.90
15636;DHT22;7917;50.818;6.972;2023-05-19T11:18:58;20.60;99.90
15636;DHT22;7917;50.818;6.972;2023-05-19T11:21:40;20.90;99.90
15636;DHT22;7917;50.818;6.972;2023-05-19T11:24:09;21.10;99.90
15636;DHT22;7917;50.818;6.972;2023-05-19T11:26:42;21.10;99.90
15636;DHT22;7917;50.818;6.972;2023-05-19T11:29:09;21.20;99.90
15636;DHT22;7917;50.818;6.972;2023-05-19T11:31:37;21.50;99.90
15636;DHT22;7917;50.818;6.972;2023-05-19T11:34:05;21.50;99.90
15636;DHT22;7917;50.818;6.972;2023-05-19T11:36:32;21.80;99.90
15636;DHT22;7917;50.818;6.972;2023-05-19T11:39:03;21.90;99.90
15636;DHT22;7917;50.818;6.972;2023-05-19T11:41:31;22.10;99.90
15636;DHT22;7917;50.818;6.972;2023-05-19T11:43:58;22.40;99.90
15636;DHT22;7917;50.818;6.972;2023-05-19T11:46:25;22.30;99.90
15636;DHT22;7917;50.818;6.972;2023-05-19T11:48:53;22.40;99.90
15636;DHT22;7917;50.818;6.972;2023-05-19T11:51:21;22.50;99.40
15636;DHT22;7917;50.818;6.972;2023-05-19T11:53:49;22.40;99.90
15636;DHT22;7917;50.818;6.972;2023-05-19T11:56:17;22.60;99.90
15636;DHT22;7917;50.818;6.972;2023-05-19T11:58:44;22.70;99.90
15636;DHT22;7917;50.818;6.972;2023-05-19T12:01:11;22.80;99.50
15636;DHT22;7917;50.818;6.972;2023-05-19T12:03:38;22.90;94.80
15636;DHT22;7917;50.818;6.972;2023-05-19T12:06:06;22.90;96.40
15636;DHT22;7917;50.818;6.972;2023-05-19T12:08:34;22.80;93.70
15636;DHT22;7917;50.818;6.972;2023-05-19T12:11:03;22.70;93.50
15636;DHT22;7917;50.818;6.972;2023-05-19T12:13:32;23.00;99.00
15636;DHT22;7917;50.818;6.972;2023-05-19T12:15:59;23.20;93.80
15636;DHT22;7917;50.818;6.972;2023-05-19T12:18:28;23.40;97.40
15636;DHT22;7917;50.818;6.972;2023-05-19T12:20:56;23.60;93.30
15636;DHT22;7917;50.818;6.972;2023-05-19T12:23:23;23.40;94.60
15636;DHT22;7917;50.818;6.972;2023-05-19T12:25:50;23.60;94.80
15636;DHT22;7917;50.818;6.972;2023-05-19T12:28:18;23.40;92.90
15636;DHT22;7917;50.818;6.972;2023-05-19T12:30:48;23.10;90.80
15636;DHT22;7917;50.818;6.972;2023-05-19T12:33:17;23.30;94.10
15636;DHT22;7917;50.818;6.972;2023-05-19T12:35:44;23.30;92.50
15636;DHT22;7917;50.818;6.972;2023-05-19T12:38:13;23.20;95.50
15636;DHT22;7917;50.818;6.972;2023-05-19T12:40:42;22.80;92.00
15636;DHT22;7917;50.818;6.972;2023-05-19T12:43:18;22.70;99.80
15636;DHT22;7917;50.818;6.972;2023-05-19T12:45:45;23.10;96.80
15636;DHT22;7917;50.818;6.972;2023-05-19T12:48:14;23.30;92.00
15636;DHT22;7917;50.818;6.972;2023-05-19T12:50:42;23.40;92.40
15636;DHT22;7917;50.818;6.972;2023-05-19T12:53:10;23.70;92.70
15636;DHT22;7917;50.818;6.972;2023-05-19T12:55:38;23.70;92.90
15636;DHT22;7917;50.818;6.972;2023-05-19T12:58:08;23.50;84.10
15636;DHT22;7917;50.818;6.972;2023-05-19T13:00:40;23.60;85.60
15636;DHT22;7917;50.818;6.972;2023-05-19T13:03:14;23.70;91.90
15636;DHT22;7917;50.818;6.972;2023-05-19T13:05:43;23.70;91.00
15636;DHT22;7917;50.818;6.972;2023-05-19T13:08:12;23.50;84.00
15636;DHT22;7917;50.818;6.972;2023-05-19T13:10:40;23.50;83.20
15636;DHT22;7917;50.818;6.972;2023-05-19T13:13:08;23.50;81.40
15636;DHT22;7917;50.818;6.972;2023-05-19T13:15:37;23.30;88.00
15636;DHT22;7917;50.818;6.972;2023-05-19T13:18:06;23.70;89.50
15636;DHT22;7917;50.818;6.972;2023-05-19T13:20:35;23.60;89.60
15636;DHT22;7917;50.818;6.972;2023-05-19T13:23:03;23.50;90.90
15636;DHT22;7917;50.818;6.972;2023-05-19T13:25:31;23.40;88.70
15636;DHT22;7917;50.818;6.972;2023-05-19T13:27:59;23.40;81.70
15636;DHT22;7917;50.818;6.972;2023-05-19T13:30:28;23.40;83.50
15636;DHT22;7917;50.818;6.972;2023-05-19T13:32:55;23.80;84.00
15636;DHT22;7917;50.818;6.972;2023-05-19T13:35:22;24.00;82.10
15636;DHT22;7917;50.818;6.972;2023-05-19T13:37:50;24.20;82.90
15636;DHT22;7917;50.818;6.972;2023-05-19T13:40:17;24.00;77.70
15636;DHT22;7917;50.818;6.972;2023-05-19T13:42:45;24.00;73.80
15636;DHT22;7917;50.818;6.972;2023-05-19T13:45:13;24.10;74.30
15636;DHT22;7917;50.818;6.972;2023-05-19T13:47:40;23.90;75.60
15636;DHT22;7917;50.818;6.972;2023-05-19T13:50:07;24.10;75.20
15636;DHT22;7917;50.818;6.972;2023-05-19T13:52:35;24.20;72.50
15636;DHT22;7917;50.818;6.972;2023-05-19T13:55:04;24.10;72.40
15636;DHT22;7917;50.818;6.972;2023-05-19T13:57:31;24.10;74.50
15636;DHT22;7917;50.818;6.972;2023-05-19T13:59:59;23.80;80.10
15636;DHT22;7917;50.818;6.972;2023-05-19T14:02:26;23.10;85.50
15636;DHT22;7917;50.818;6.972;2023-05-19T14:04:59;23.00;91.90
15636;DHT22;7917;50.818;6.972;2023-05-19T14:07:26;23.40;83.10
15636;DHT22;7917;50.818;6.972;2023-05-19T14:09:53;23.60;87.30
15636;DHT22;7917;50.818;6.972;2023-05-19T14:12:21;23.90;77.50
15636;DHT22;7917;50.818;6.972;2023-05-19T14:14:51;24.10;70.40
15636;DHT22;7917;50.818;6.972;2023-05-19T14:17:18;24.60;78.00
15636;DHT22;7917;50.818;6.972;2023-05-19T14:19:45;24.60;72.40
15636;DHT22;7917;50.818;6.972;2023-05-19T14:22:12;24.00;70.80
15636;DHT22;7917;50.818;6.972;2023-05-19T14:24:39;23.50;77.50
15636;DHT22;7917;50.818;6.972;2023-05-19T14:27:06;22.90;89.30
15636;DHT22;7917;50.818;6.972;2023-05-19T14:29:35;22.60;92.00
15636;DHT22;7917;50.818;6.972;2023-05-19T14:32:02;22.50;91.30
15636;DHT22;7917;50.818;6.972;2023-05-19T14:34:28;22.70;93.40
15636;DHT22;7917;50.818;6.972;2023-05-19T14:36:55;23.00;91.10
15636;DHT22;7917;50.818;6.972;2023-05-19T14:39:24;23.00;89.90
15636;DHT22;7917;50.818;6.972;2023-05-19T14:41:52;23.90;88.60
15636;DHT22;7917;50.818;6.972;2023-05-19T14:44:18;25.70;62.20
15636;DHT22;7917;50.818;6.972;2023-05-19T14:46:46;26.50;53.00
15636;DHT22;7917;50.818;6.972;2023-05-19T14:49:13;26.20;48.50
15636;DHT22;7917;50.818;6.972;2023-05-19T14:51:40;26.40;49.30
15636;DHT22;7917;50.818;6.972;2023-05-19T14:54:07;26.40;48.10
15636;DHT22;7917;50.818;6.972;2023-05-19T14:56:34;25.40;52.20
15636;DHT22;7917;50.818;6.972;2023-05-19T14:59:01;24.50;65.00
15636;DHT22;7917;50.818;6.972;2023-05-19T15:01:29;23.80;70.30
15636;DHT22;7917;50.818;6.972;2023-05-19T15:03:57;23.80;78.50
15636;DHT22;7917;50.818;6.972;2023-05-19T15:06:24;24.30;73.60
15636;DHT22;7917;50.818;6.972;2023-05-19T15:08:51;24.70;69.00
15636;DHT22;7917;50.818;6.972;2023-05-19T15:11:19;24.90;65.90
15636;DHT22;7917;50.818;6.972;2023-05-19T15:13:47;25.50;59.30
15636;DHT22;7917;50.818;6.972;2023-05-19T15:16:14;26.00;52.50
15636;DHT22;7917;50.818;6.972;2023-05-19T15:18:41;26.90;43.50
15636;DHT22;7917;50.818;6.972;2023-05-19T15:21:08;27.70;34.00
15636;DHT22;7917;50.818;6.972;2023-05-19T15:23:35;28.40;28.40
15636;DHT22;7917;50.818;6.972;2023-05-19T15:26:02;27.80;28.10
15636;DHT22;7917;50.818;6.972;2023-05-19T15:28:30;26.00;41.20
15636;DHT22;7917;50.818;6.972;2023-05-19T15:30:57;24.60;56.80
15636;DHT22;7917;50.818;6.972;2023-05-19T15:33:24;23.50;69.20
15636;DHT22;7917;50.818;6.972;2023-05-19T15:35:51;22.90;80.00
15636;DHT22;7917;50.818;6.972;2023-05-19T15:38:20;22.80;81.20
15636;DHT22;7917;50.818;6.972;2023-05-19T15:40:47;22.70;88.70
15636;DHT22;7917;50.818;6.972;2023-05-19T15:43:14;22.90;88.00
15636;DHT22;7917;50.818;6.972;2023-05-19T15:45:42;22.70;92.70
15636;DHT22;7917;50.818;6.972;2023-05-19T15:48:09;23.60;84.50
15636;DHT22;7917;50.818;6.972;2023-05-19T15:50:36;24.90;67.10
15636;DHT22;7917;50.818;6.972;2023-05-19T15:53:03;25.70;52.60
15636;DHT22;7917;50.818;6.972;2023-05-19T15:55:33;25.10;54.50
15636;DHT22;7917;50.818;6.972;2023-05-19T15:58:00;23.80;70.30
15636;DHT22;7917;50.818;6.972;2023-05-19T16:00:28;23.00;81.60
15636;DHT22;7917;50.818;6.972;2023-05-19T16:02:55;22.50;87.30